Time;durP1;ratioP1;P1;durP2;ratioP2;P2;SDS_P1;SDS_P2;PMS_P1;PMS_P2;Temp;Humidity;BMP_temperature;BMP_pressure;BME280_temperature;BME280_humidity;BME280_pressure;Samples;Min_cycle;Max_cycle;Signal;HPM_P1;HPM_P2
2023/06/21 00:01:03;;;;;;;;;;;;;;;23.87;55.68;99866.41;5284830;27;34120;-83
2023/06/21 00:03:32;;;;;;;;;;;;;;;23.73;56.09;99859.66;5302627;27;34589;-83
2023/06/21 00:05:59;;;;;;;;;;;;;;;23.74;56.05;99847.91;5284161;27;33350;-83
2023/06/21 00:08:27;;;;;;;;;;;;;;;23.61;56.36;99850.91;5283825;27;34247;-83
2023/06/21 00:10:56;;;;;;;;;;;;;;;23.52;56.59;99843.72;5283654;27;34495;-83
2023/06/21 00:13:24;;;;;;;;;;;;;;;23.47;56.75;99848.72;5283843;27;33105;-83
2023/06/21 00:15:54;;;;;;;;;;;;;;;23.31;57.34;99846.66;5283211;27;32766;-84
2023/06/21 00:18:24;;;;;;;;;;;;;;;23.70;55.96;99849.22;5302519;27;34269;-84
2023/06/21 00:20:51;;;;;;;;;;;;;;;23.33;57.04;99846.50;5321281;27;33879;-83
2023/06/21 00:23:19;;;;;;;;;;;;;;;23.43;56.78;99848.16;5321574;27;34734;-83
2023/06/21 00:25:46;;;;;;;;;;;;;;;23.38;56.85;99839.66;5301599;27;33688;-83
2023/06/21 00:28:15;;;;;;;;;;;;;;;23.29;57.09;99850.47;5284061;27;34606;-84
2023/06/21 00:30:42;;;;;;;;;;;;;;;23.25;57.26;99842.69;5283808;27;35041;-83
2023/06/21 00:33:10;;;;;;;;;;;;;;;23.36;56.69;99848.87;5284037;27;33725;-83
2023/06/21 00:35:40;;;;;;;;;;;;;;;23.35;56.78;99841.81;5284089;27;33304;-83
2023/06/21 00:38:07;;;;;;;;;;;;;;;23.29;57.14;99837.00;5282988;27;33486;-83
2023/06/21 00:40:34;;;;;;;;;;;;;;;23.24;56.65;99853.63;5301909;27;34949;-83
2023/06/21 00:43:03;;;;;;;;;;;;;;;23.37;55.92;99842.53;5283260;27;34820;-82
2023/06/21 00:45:39;;;;;;;;;;;;;;;23.30;56.27;99847.63;5302173;27;33651;-82
2023/06/21 00:48:07;;;;;;;;;;;;;;;23.29;56.26;99856.72;5302667;27;34090;-82
2023/06/21 00:50:35;;;;;;;;;;;;;;;23.65;54.83;99863.13;5265219;27;33211;-82
2023/06/21 00:53:02;;;;;;;;;;;;;;;23.39;55.54;99862.06;5283388;27;33916;-82
2023/06/21 00:55:29;;;;;;;;;;;;;;;23.14;56.42;99859.03;5301654;27;33385;-82
2023/06/21 00:57:57;;;;;;;;;;;;;;;22.94;57.06;99862.78;5301346;27;33221;-82
2023/06/21 01:00:25;;;;;;;;;;;;;;;23.10;56.71;99857.63;5301848;27;34098;-82
2023/06/21 01:02:57;;;;;;;;;;;;;;;23.15;56.42;99858.03;5285361;27;34797;-82
2023/06/21 01:05:24;;;;;;;;;;;;;;;23.45;55.27;99862.34;5301253;27;33422;-82
2023/06/21 01:07:52;;;;;;;;;;;;;;;23.21;55.89;99849.34;5301922;27;34284;-82
2023/06/21 01:10:21;;;;;;;;;;;;;;;23.11;56.09;99858.47;5301305;27;33691;-82
2023/06/21 01:13:27;;;;;;;;;;;;;;;23.27;55.34;99850.63;5301760;27;34153;-82
2023/06/21 01:15:57;;;;;;;;;;;;;;;23.18;55.68;99857.75;5213214;27;32778;-81
2023/06/21 01:18:26;;;;;;;;;;;;;;;23.17;55.33;99858.75;5195365;27;34965;-82
2023/06/21 01:20:54;;;;;;;;;;;;;;;22.99;56.19;99861.34;5251283;27;33584;-82
2023/06/21 01:23:34;;;;;;;;;;;;;;;23.05;56.13;99859.91;5301546;27;34415;-82
2023/06/21 01:26:02;;;;;;;;;;;;;;;23.08;56.20;99858.78;5321074;27;33060;-82
2023/06/21 01:28:51;;;;;;;;;;;;;;;23.06;56.28;99866.13;5301900;27;34015;-82
2023/06/21 01:31:20;;;;;;;;;;;;;;;23.13;56.03;99861.88;5301541;27;33961;-81
2023/06/21 01:33:49;;;;;;;;;;;;;;;23.18;55.81;99859.59;5284114;27;34480;-82
2023/06/21 01:36:17;;;;;;;;;;;;;;;23.13;56.09;99857.34;5265209;27;33767;-82
2023/06/21 01:38:44;;;;;;;;;;;;;;;23.23;55.59;99844.69;5282277;27;32989;-81
2023/06/21 01:41:12;;;;;;;;;;;;;;;23.12;55.73;99847.56;5283610;27;34811;-82
2023/06/21 01:43:40;;;;;;;;;;;;;;;23.15;55.73;99847.25;5301423;27;34510;-83
2023/06/21 01:46:07;;;;;;;;;;;;;;;23.18;55.57;99838.91;5301591;27;34861;-83
2023/06/21 01:48:35;;;;;;;;;;;;;;;23.13;56.01;99843.88;5301589;27;33863;-83
2023/06/21 01:51:04;;;;;;;;;;;;;;;23.05;56.32;99854.53;5284691;27;35217;-83
2023/06/21 01:53:33;;;;;;;;;;;;;;;23.09;56.33;99850.53;5266139;27;34530;-83
2023/06/21 01:56:02;;;;;;;;;;;;;;;22.99;56.50;99865.88;5284190;27;34181;-82
2023/06/21 01:58:31;;;;;;;;;;;;;;;23.03;56.34;99863.75;5284096;27;34287;-82
2023/06/21 02:01:00;;;;;;;;;;;;;;;23.07;56.11;99863.28;5302491;27;33897;-83
2023/06/21 02:03:29;;;;;;;;;;;;;;;23.16;55.78;99862.41;5284880;27;34889;-83
2023/06/21 02:05:59;;;;;;;;;;;;;;;23.08;55.96;99865.00;5284651;27;33663;-83
2023/06/21 02:08:28;;;;;;;;;;;;;;;23.07;55.96;99871.37;5303085;27;34613;-83
2023/06/21 02:10:56;;;;;;;;;;;;;;;22.98;56.21;99873.13;5283922;27;33014;-83
2023/06/21 02:13:26;;;;;;;;;;;;;;;22.93;56.51;99866.44;5283979;27;33563;-83
2023/06/21 02:15:53;;;;;;;;;;;;;;;22.95;56.33;99870.69;5283716;27;33582;-81
2023/06/21 02:18:21;;;;;;;;;;;;;;;23.03;56.26;99872.69;5281678;27;33095;-82
2023/06/21 02:20:49;;;;;;;;;;;;;;;22.98;56.26;99867.72;5281798;27;34213;-82
2023/06/21 02:23:18;;;;;;;;;;;;;;;22.90;56.81;99875.69;5302436;27;34802;-82
2023/06/21 02:25:45;;;;;;;;;;;;;;;22.83;56.58;99870.97;5284174;27;33348;-82
2023/06/21 02:28:13;;;;;;;;;;;;;;;22.81;56.62;99876.50;5302150;27;34008;-82
2023/06/21 02:30:43;;;;;;;;;;;;;;;22.81;56.72;99868.44;5302278;27;35506;-82
2023/06/21 02:33:11;;;;;;;;;;;;;;;22.90;56.28;99867.59;5263438;27;33209;-82
2023/06/21 02:35:41;;;;;;;;;;;;;;;22.89;56.01;99867.75;5299992;27;33887;-82
2023/06/21 02:38:09;;;;;;;;;;;;;;;22.75;56.56;99863.63;5299291;27;33835;-82
2023/06/21 02:40:36;;;;;;;;;;;;;;;22.76;56.46;99865.31;5281510;27;34373;-83
2023/06/21 02:43:04;;;;;;;;;;;;;;;22.80;56.51;99861.34;5284023;27;34037;-83
2023/06/21 02:45:32;;;;;;;;;;;;;;;22.81;56.38;99862.19;5302278;27;33986;-82
2023/06/21 02:48:00;;;;;;;;;;;;;;;22.90;56.21;99861.38;5283733;27;34571;-83
2023/06/21 02:50:27;;;;;;;;;;;;;;;22.85;56.08;99856.37;5283951;27;34234;-82
2023/06/21 02:52:55;;;;;;;;;;;;;;;22.82;56.38;99861.19;5301969;27;34073;-83
2023/06/21 02:55:22;;;;;;;;;;;;;;;22.76;56.58;99854.56;5301782;27;33929;-83
2023/06/21 02:57:50;;;;;;;;;;;;;;;22.80;56.29;99863.19;5283994;27;35050;-83
2023/06/21 03:00:22;;;;;;;;;;;;;;;22.90;56.31;99864.06;5301552;27;34198;-82
2023/06/21 03:02:50;;;;;;;;;;;;;;;22.93;56.07;99863.75;5284470;27;33297;-82
2023/06/21 03:05:18;;;;;;;;;;;;;;;22.98;55.94;99864.19;5284098;27;33245;-83
2023/06/21 03:07:46;;;;;;;;;;;;;;;22.96;56.00;99855.38;5302161;27;34241;-82
2023/06/21 03:10:14;;;;;;;;;;;;;;;22.90;56.04;99855.97;5302140;27;33975;-82
2023/06/21 03:12:42;;;;;;;;;;;;;;;22.85;56.24;99852.84;5284575;27;34279;-82
2023/06/21 03:15:10;;;;;;;;;;;;;;;22.79;56.78;99856.09;5302343;27;34174;-83
2023/06/21 03:17:38;;;;;;;;;;;;;;;22.96;55.92;99858.09;5266070;27;33508;-83
2023/06/21 03:20:12;;;;;;;;;;;;;;;22.88;56.70;99860.59;5284111;27;33401;-83
2023/06/21 03:22:41;;;;;;;;;;;;;;;22.90;56.89;99861.38;5267238;27;32909;-82
2023/06/21 03:25:11;;;;;;;;;;;;;;;23.02;56.54;99859.34;5284258;27;33601;-82
2023/06/21 03:27:39;;;;;;;;;;;;;;;22.90;57.17;99874.81;5301996;27;33501;-82
2023/06/21 03:30:11;;;;;;;;;;;;;;;22.96;56.72;99867.00;5284207;27;33780;-82
2023/06/21 03:32:39;;;;;;;;;;;;;;;22.92;57.05;99862.91;5302353;27;34165;-82
2023/06/21 03:35:07;;;;;;;;;;;;;;;23.04;56.97;99858.22;5301895;27;33244;-82
2023/06/21 03:37:34;;;;;;;;;;;;;;;23.02;57.01;99859.34;5283001;27;33844;-82
2023/06/21 03:40:03;;;;;;;;;;;;;;;23.02;56.93;99859.34;5265668;27;32584;-82
2023/06/21 03:42:31;;;;;;;;;;;;;;;23.47;55.75;99859.50;5321776;27;34838;-82
2023/06/21 03:44:58;;;;;;;;;;;;;;;23.11;57.05;99864.69;5283787;27;33220;-82
2023/06/21 03:47:25;;;;;;;;;;;;;;;23.37;56.40;99854.16;5283632;27;32920;-82
2023/06/21 03:49:57;;;;;;;;;;;;;;;23.29;57.00;99855.87;5321275;27;35081;-82
2023/06/21 03:52:24;;;;;;;;;;;;;;;23.07;58.13;99855.22;5302856;27;34850;-82
2023/06/21 03:54:52;;;;;;;;;;;;;;;23.11;58.24;99859.31;5283719;27;33449;-82
2023/06/21 03:57:20;;;;;;;;;;;;;;;23.52;56.82;99854.50;5265826;27;32988;-82
2023/06/21 03:59:47;;;;;;;;;;;;;;;23.67;56.17;99855.72;5321628;27;35031;-83
2023/06/21 04:02:15;;;;;;;;;;;;;;;23.66;56.12;99859.44;5302021;27;34298;-83
2023/06/21 04:04:43;;;;;;;;;;;;;;;23.63;56.36;99865.09;5283635;27;32814;-83
2023/06/21 04:07:10;;;;;;;;;;;;;;;23.53;57.17;99858.88;5301669;27;34274;-82
2023/06/21 04:09:38;;;;;;;;;;;;;;;23.64;57.49;99861.44;5301873;27;33820;-82
2023/06/21 04:12:05;;;;;;;;;;;;;;;23.54;57.84;99860.59;5283920;27;34274;-82
2023/06/21 04:14:33;;;;;;;;;;;;;;;23.64;57.60;99871.34;5302375;27;32887;-82
2023/06/21 04:17:00;;;;;;;;;;;;;;;23.81;56.83;99867.03;5301654;27;34998;-82
2023/06/21 04:19:28;;;;;;;;;;;;;;;23.81;56.72;99878.66;5301372;27;34048;-82
2023/06/21 04:21:56;;;;;;;;;;;;;;;24.20;55.76;99873.88;5265588;27;32854;-82
2023/06/21 04:24:23;;;;;;;;;;;;;;;24.43;55.31;99878.84;5283264;27;33631;-82
2023/06/21 04:26:51;;;;;;;;;;;;;;;24.54;55.38;99886.72;5301868;27;33979;-82
2023/06/21 04:29:21;;;;;;;;;;;;;;;24.67;54.88;99897.97;5301866;27;34265;-82
2023/06/21 04:31:52;;;;;;;;;;;;;;;24.72;54.61;99897.50;5301571;27;34371;-82
2023/06/21 04:34:20;;;;;;;;;;;;;;;24.72;54.98;99902.91;5302188;27;33398;-82
2023/06/21 04:36:47;;;;;;;;;;;;;;;24.81;54.85;99914.63;5283664;27;32593;-82
2023/06/21 04:39:15;;;;;;;;;;;;;;;24.95;53.65;99911.38;5283761;27;34186;-82
2023/06/21 04:41:46;;;;;;;;;;;;;;;25.00;53.79;99914.44;5283817;27;34106;-82
2023/06/21 04:44:16;;;;;;;;;;;;;;;25.09;53.38;99918.94;5283922;27;33572;-82
2023/06/21 04:46:44;;;;;;;;;;;;;;;25.20;53.37;99918.69;5301962;27;34731;-82
2023/06/21 04:49:12;;;;;;;;;;;;;;;25.39;52.60;99919.47;5283815;27;34599;-82
2023/06/21 04:51:39;;;;;;;;;;;;;;;25.52;51.40;99914.50;5301603;27;34509;-82
2023/06/21 04:54:07;;;;;;;;;;;;;;;25.59;51.06;99910.16;5302123;27;34284;-82
2023/06/21 04:56:35;;;;;;;;;;;;;;;25.54;50.95;99912.47;5301516;27;34676;-82
2023/06/21 04:59:03;;;;;;;;;;;;;;;25.47;52.22;99911.44;5302001;27;33847;-81
2023/06/21 05:01:31;;;;;;;;;;;;;;;25.60;51.49;99911.00;5265406;27;33430;-83
2023/06/21 05:03:58;;;;;;;;;;;;;;;25.66;51.85;99907.66;5283698;27;33728;-83
2023/06/21 05:06:26;;;;;;;;;;;;;;;25.69;52.42;99905.47;5301261;27;34043;-84
2023/06/21 05:08:54;;;;;;;;;;;;;;;25.82;51.77;99896.94;5282721;27;33940;-82
2023/06/21 05:11:21;;;;;;;;;;;;;;;25.61;50.37;99900.03;5301732;27;34313;-83
2023/06/21 05:13:48;;;;;;;;;;;;;;;25.88;50.57;99887.34;5282788;27;31961;-82
2023/06/21 05:16:17;;;;;;;;;;;;;;;26.11;49.13;99883.03;5321372;27;34274;-83
2023/06/21 05:18:45;;;;;;;;;;;;;;;26.20;48.59;99881.16;5265621;27;33277;-82
2023/06/21 05:21:12;;;;;;;;;;;;;;;26.28;48.76;99895.56;5301593;27;34490;-82
2023/06/21 05:23:40;;;;;;;;;;;;;;;26.40;48.55;99893.41;5302014;27;34321;-82
2023/06/21 05:26:08;;;;;;;;;;;;;;;26.65;48.18;99899.72;5267407;27;32835;-82
2023/06/21 05:28:35;;;;;;;;;;;;;;;26.94;46.66;99901.91;5267556;27;33392;-83
2023/06/21 05:31:03;;;;;;;;;;;;;;;26.99;46.38;99914.97;5285724;27;33964;-83
2023/06/21 05:33:30;;;;;;;;;;;;;;;26.77;47.05;99909.19;5286072;27;33715;-83
2023/06/21 05:35:58;;;;;;;;;;;;;;;26.77;49.00;99913.75;5285176;27;33925;-84
2023/06/21 05:38:25;;;;;;;;;;;;;;;27.03;47.75;99910.91;5266876;27;33087;-85
2023/06/21 05:40:53;;;;;;;;;;;;;;;27.25;46.17;99915.66;5285255;27;34419;-85
2023/06/21 05:43:23;;;;;;;;;;;;;;;27.21;45.82;99906.16;5285547;27;33406;-85
2023/06/21 05:45:51;;;;;;;;;;;;;;;27.71;44.84;99902.31;5266791;27;33242;-85
2023/06/21 05:48:18;;;;;;;;;;;;;;;27.41;45.12;99900.38;5323803;27;34139;-86
2023/06/21 05:50:46;;;;;;;;;;;;;;;27.80;44.08;99893.13;5286004;27;33661;-85
2023/06/21 05:53:13;;;;;;;;;;;;;;;27.65;44.95;99900.28;5304036;27;33253;-85
2023/06/21 05:55:41;;;;;;;;;;;;;;;27.26;44.57;99909.22;5303798;27;33972;-85
2023/06/21 05:58:08;;;;;;;;;;;;;;;27.70;44.33;99900.63;5303665;27;34090;-85
2023/06/21 06:00:36;;;;;;;;;;;;;;;27.93;43.57;99902.59;5285322;27;33936;-85
2023/06/21 06:03:03;;;;;;;;;;;;;;;27.81;44.06;99913.81;5303843;27;33470;-85
2023/06/21 06:05:31;;;;;;;;;;;;;;;28.02;43.61;99912.41;5267262;27;33255;-85
2023/06/21 06:07:58;;;;;;;;;;;;;;;28.41;43.86;99912.38;5285370;27;32770;-85
2023/06/21 06:10:26;;;;;;;;;;;;;;;28.21;42.65;99913.81;5267771;27;34393;-85
2023/06/21 06:12:54;;;;;;;;;;;;;;;28.49;42.95;99908.78;5285724;27;33307;-85
2023/06/21 06:15:22;;;;;;;;;;;;;;;28.03;41.95;99904.06;5303688;27;33758;-84
2023/06/21 06:17:49;;;;;;;;;;;;;;;28.20;42.60;99907.56;5285335;27;34321;-85
2023/06/21 06:20:17;;;;;;;;;;;;;;;28.73;41.88;99905.88;5285087;27;34416;-85
2023/06/21 06:22:45;;;;;;;;;;;;;;;28.77;40.52;99890.91;5303941;27;33723;-85
2023/06/21 06:25:13;;;;;;;;;;;;;;;28.84;41.68;99902.72;5284715;27;34090;-85
2023/06/21 06:27:40;;;;;;;;;;;;;;;29.19;41.50;99883.22;5303401;27;33539;-85
2023/06/21 06:30:08;;;;;;;;;;;;;;;28.88;42.21;99891.47;5303566;27;34042;-85
2023/06/21 06:32:36;;;;;;;;;;;;;;;28.87;42.33;99887.09;5283624;27;32315;-85
2023/06/21 06:35:04;;;;;;;;;;;;;;;29.23;41.11;99888.09;5302829;27;34726;-85
2023/06/21 06:37:32;;;;;;;;;;;;;;;29.01;41.18;99889.88;5283898;27;34165;-85
2023/06/21 06:39:59;;;;;;;;;;;;;;;29.20;41.63;99885.78;5283662;27;32903;-85
2023/06/21 06:42:27;;;;;;;;;;;;;;;29.58;40.93;99894.75;5302208;27;34182;-84
2023/06/21 06:44:55;;;;;;;;;;;;;;;29.15;41.73;99892.78;5283970;27;33898;-85
2023/06/21 06:47:23;;;;;;;;;;;;;;;29.21;40.90;99892.91;5283706;27;33201;-85
2023/06/21 06:49:51;;;;;;;;;;;;;;;29.30;40.59;99894.50;5300846;27;34104;-85
2023/06/21 06:52:18;;;;;;;;;;;;;;;29.42;40.69;99894.03;5300672;27;33223;-85
2023/06/21 06:54:46;;;;;;;;;;;;;;;29.56;40.58;99901.41;5265604;27;33835;-86
2023/06/21 06:57:13;;;;;;;;;;;;;;;29.21;41.34;99903.78;5283968;27;33878;-85
2023/06/21 07:00:00;;;;;;;;;;;;;;;29.63;41.70;99902.34;5271911;27;33322;-86
2023/06/21 07:02:29;;;;;;;;;;;;;;;29.51;40.06;99901.91;5302620;27;33133;-85
2023/06/21 07:04:56;;;;;;;;;;;;;;;29.65;40.93;99902.16;5284387;27;33722;-85
2023/06/21 07:07:24;;;;;;;;;;;;;;;29.74;39.72;99904.59;5284212;27;33904;-85
2023/06/21 07:09:51;;;;;;;;;;;;;;;29.85;40.00;99901.37;5302259;27;34574;-86
2023/06/21 07:12:19;;;;;;;;;;;;;;;29.96;39.46;99899.19;5284361;27;32545;-85
2023/06/21 07:14:47;;;;;;;;;;;;;;;30.13;40.26;99897.13;5284045;27;33104;-85
2023/06/21 07:17:14;;;;;;;;;;;;;;;29.85;40.65;99895.94;5302151;27;34112;-86
2023/06/21 07:19:45;;;;;;;;;;;;;;;30.41;40.97;99909.00;5302232;27;35699;-85
2023/06/21 07:22:13;;;;;;;;;;;;;;;30.45;39.95;99904.00;5285044;27;33294;-85
2023/06/21 07:24:40;;;;;;;;;;;;;;;30.63;39.15;99898.97;5284097;27;34026;-85
2023/06/21 07:27:08;;;;;;;;;;;;;;;30.81;39.42;99896.66;5302020;27;34954;-85
2023/06/21 07:29:35;;;;;;;;;;;;;;;30.84;38.92;99885.34;5284466;27;35680;-86
2023/06/21 07:32:03;;;;;;;;;;;;;;;30.90;39.00;99888.31;5302253;27;32978;-85
2023/06/21 07:34:31;;;;;;;;;;;;;;;30.83;38.72;99889.13;5284051;27;33426;-85
2023/06/21 07:36:59;;;;;;;;;;;;;;;30.34;39.76;99894.47;5302203;27;33917;-85
2023/06/21 07:39:26;;;;;;;;;;;;;;;30.85;39.24;99884.28;5266120;27;33444;-85
2023/06/21 07:42:01;;;;;;;;;;;;;;;31.18;37.98;99883.72;5285026;27;34271;-85
2023/06/21 07:44:40;;;;;;;;;;;;;;;31.26;38.87;99877.28;5286575;27;33456;-85
2023/06/21 07:47:07;;;;;;;;;;;;;;;31.58;38.57;99878.56;5302092;27;33875;-85
2023/06/21 07:49:35;;;;;;;;;;;;;;;31.38;39.21;99875.69;5266183;27;33664;-85
2023/06/21 07:52:02;;;;;;;;;;;;;;;31.70;38.86;99868.75;5302321;27;33679;-85
2023/06/21 07:54:30;;;;;;;;;;;;;;;31.83;38.93;99873.47;5283812;27;34171;-85
2023/06/21 07:56:57;;;;;;;;;;;;;;;31.83;39.18;99857.94;5301648;27;34280;-86
2023/06/21 07:59:25;;;;;;;;;;;;;;;31.57;39.02;99865.94;5302066;27;34017;-85
2023/06/21 08:01:52;;;;;;;;;;;;;;;31.65;39.13;99868.53;5301876;27;34300;-86
2023/06/21 08:04:20;;;;;;;;;;;;;;;31.30;39.29;99874.00;5320124;27;34205;-84
2023/06/21 08:06:47;;;;;;;;;;;;;;;31.93;38.66;99881.28;5302182;27;34150;-85
2023/06/21 08:09:15;;;;;;;;;;;;;;;32.33;38.11;99879.50;5320476;27;34394;-85
2023/06/21 08:11:42;;;;;;;;;;;;;;;31.91;38.78;99886.13;5301845;27;32978;-85
2023/06/21 08:14:10;;;;;;;;;;;;;;;32.25;38.80;99883.28;5301377;27;32825;-85
2023/06/21 08:16:37;;;;;;;;;;;;;;;32.07;39.53;99899.41;5321133;27;33966;-85
2023/06/21 08:19:05;;;;;;;;;;;;;;;32.50;37.78;99900.00;5319694;27;33477;-85
2023/06/21 08:21:33;;;;;;;;;;;;;;;32.30;37.88;99902.66;5320277;27;33092;-85
2023/06/21 08:24:00;;;;;;;;;;;;;;;32.33;38.10;99895.91;5301851;27;33859;-87
2023/06/21 08:26:28;;;;;;;;;;;;;;;32.19;38.75;99897.78;5301898;27;33835;-87
2023/06/21 08:28:55;;;;;;;;;;;;;;;32.30;38.33;99905.38;5283978;27;33328;-87
2023/06/21 08:31:23;;;;;;;;;;;;;;;32.44;38.50;99900.81;5282735;27;32900;-86
2023/06/21 08:33:50;;;;;;;;;;;;;;;32.63;38.17;99913.69;5300792;27;35028;-87
2023/06/21 08:36:18;;;;;;;;;;;;;;;32.61;38.14;99913.03;5301883;27;33846;-86
2023/06/21 08:38:46;;;;;;;;;;;;;;;32.41;37.37;99911.31;5321546;27;34387;-86
2023/06/21 08:41:14;;;;;;;;;;;;;;;32.15;38.64;99912.91;5302037;27;33064;-86
2023/06/21 08:43:41;;;;;;;;;;;;;;;32.56;37.64;99911.97;5319209;27;33163;-86
2023/06/21 08:46:09;;;;;;;;;;;;;;;32.58;38.15;99920.84;5321070;27;35586;-86
2023/06/21 08:48:37;;;;;;;;;;;;;;;32.62;37.51;99928.41;5301264;27;34317;-86
2023/06/21 08:51:05;;;;;;;;;;;;;;;32.40;38.60;99926.03;5320341;27;32836;-86
2023/06/21 08:53:37;;;;;;;;;;;;;;;32.54;38.66;99936.78;5301307;27;34261;-86
2023/06/21 08:56:05;;;;;;;;;;;;;;;32.98;38.72;99940.03;5320133;27;34792;-86
2023/06/21 08:58:36;;;;;;;;;;;;;;;32.89;37.56;99939.37;5319655;27;34497;-86
2023/06/21 09:01:03;;;;;;;;;;;;;;;32.97;38.03;99932.91;5301706;27;32761;-86
2023/06/21 09:03:32;;;;;;;;;;;;;;;32.89;37.51;99923.81;5265834;27;34318;-85
2023/06/21 09:06:05;;;;;;;;;;;;;;;32.88;38.38;99938.53;5300954;27;34019;-85
2023/06/21 09:08:33;;;;;;;;;;;;;;;32.84;37.46;99931.78;5301786;27;34241;-86
2023/06/21 09:11:01;;;;;;;;;;;;;;;32.37;38.77;99938.22;5301410;27;34373;-86
2023/06/21 09:13:29;;;;;;;;;;;;;;;32.70;38.35;99938.28;5283437;27;34955;-86
2023/06/21 09:15:57;;;;;;;;;;;;;;;32.46;38.91;99936.97;5282471;27;33820;-86
2023/06/21 09:18:24;;;;;;;;;;;;;;;32.49;39.75;99938.47;5283186;27;33673;-85
2023/06/21 09:20:52;;;;;;;;;;;;;;;32.30;38.87;99934.59;5301332;27;33198;-86
2023/06/21 09:23:20;;;;;;;;;;;;;;;32.50;39.48;99932.78;5301797;27;33877;-86
2023/06/21 09:25:48;;;;;;;;;;;;;;;32.68;38.75;99937.66;5283577;27;33163;-86
2023/06/21 09:28:15;;;;;;;;;;;;;;;32.72;38.78;99933.47;5265165;27;33457;-86
2023/06/21 09:30:44;;;;;;;;;;;;;;;32.59;39.01;99934.28;5301537;27;33688;-86
2023/06/21 09:33:12;;;;;;;;;;;;;;;32.52;39.30;99938.03;5283167;27;32920;-86
2023/06/21 09:35:39;;;;;;;;;;;;;;;32.60;39.04;99932.37;5281838;27;33611;-86
2023/06/21 09:38:23;;;;;;;;;;;;;;;32.34;39.57;99936.72;5301275;27;35183;-86
2023/06/21 09:40:51;;;;;;;;;;;;;;;32.36;40.38;99940.09;5300330;27;33328;-86
2023/06/21 09:43:22;;;;;;;;;;;;;;;32.49;39.73;99939.31;5283402;27;33805;-86
2023/06/21 09:45:59;;;;;;;;;;;;;;;32.53;39.70;99945.22;5301040;27;34590;-86
2023/06/21 09:48:27;;;;;;;;;;;;;;;32.62;39.92;99949.44;5300512;27;34447;-86
2023/06/21 09:50:55;;;;;;;;;;;;;;;32.71;39.29;99952.81;5279717;27;32572;-85
2023/06/21 09:53:25;;;;;;;;;;;;;;;32.51;39.45;99955.50;5262943;27;33639;-86
2023/06/21 09:55:55;;;;;;;;;;;;;;;32.68;39.38;99964.16;5301329;27;34323;-86
2023/06/21 09:58:23;;;;;;;;;;;;;;;32.78;40.10;99959.97;5265009;27;33483;-85
2023/06/21 10:00:51;;;;;;;;;;;;;;;32.95;40.29;99954.13;5282852;27;32051;-86
2023/06/21 10:03:22;;;;;;;;;;;;;;;32.77;39.66;99954.72;5265032;27;34110;-85
2023/06/21 10:05:54;;;;;;;;;;;;;;;32.37;40.12;99952.72;5300318;27;35600;-86
2023/06/21 10:08:24;;;;;;;;;;;;;;;32.62;39.76;99953.00;5264510;27;33308;-86
2023/06/21 10:10:52;;;;;;;;;;;;;;;32.86;39.45;99946.13;5283393;27;33065;-86
2023/06/21 10:13:30;;;;;;;;;;;;;;;32.88;40.19;99944.00;5266002;27;33034;-86
2023/06/21 10:15:59;;;;;;;;;;;;;;;32.68;40.94;99953.25;5265792;27;33091;-85
2023/06/21 10:18:27;;;;;;;;;;;;;;;32.70;39.60;99951.12;5283567;27;33354;-86
2023/06/21 10:21:01;;;;;;;;;;;;;;;32.52;40.12;99955.31;5282944;27;33630;-87
2023/06/21 10:23:34;;;;;;;;;;;;;;;32.66;39.42;99950.69;5301965;27;33754;-86
2023/06/21 10:26:02;;;;;;;;;;;;;;;32.87;39.78;99952.44;5283037;27;35028;-86
2023/06/21 10:28:37;;;;;;;;;;;;;;;33.07;39.25;99945.09;5283433;27;34539;-86
2023/06/21 10:31:04;;;;;;;;;;;;;;;32.99;39.77;99945.31;5284155;27;34299;-87
2023/06/21 10:33:32;;;;;;;;;;;;;;;33.60;39.81;99949.72;5284024;27;33815;-86
2023/06/21 10:36:00;;;;;;;;;;;;;;;33.37;39.96;99948.25;5301994;27;34532;-86
2023/06/21 10:38:36;;;;;;;;;;;;;;;33.15;40.32;99952.28;5265904;27;34671;-86
2023/06/21 10:41:06;;;;;;;;;;;;;;;33.29;40.17;99955.84;5283573;27;32881;-86
2023/06/21 10:43:34;;;;;;;;;;;;;;;33.25;39.83;99963.63;5283893;27;34241;-86
2023/06/21 10:46:03;;;;;;;;;;;;;;;33.08;40.58;99954.16;5283800;27;34236;-86
2023/06/21 10:48:32;;;;;;;;;;;;;;;33.01;40.65;99953.31;5265170;27;34316;-86
2023/06/21 10:51:02;;;;;;;;;;;;;;;33.08;40.98;99960.47;5319333;27;33464;-86
2023/06/21 10:53:31;;;;;;;;;;;;;;;33.23;40.60;99957.50;5319590;27;33579;-86
2023/06/21 10:56:04;;;;;;;;;;;;;;;33.31;41.71;99957.31;5301593;27;34244;-87
2023/06/21 10:58:32;;;;;;;;;;;;;;;33.45;41.14;99954.59;5266265;27;33048;-87
2023/06/21 11:00:59;;;;;;;;;;;;;;;33.49;39.68;99958.59;5283679;27;33954;-86
2023/06/21 11:03:27;;;;;;;;;;;;;;;33.68;40.11;99955.00;5265898;27;32943;-86
2023/06/21 11:05:55;;;;;;;;;;;;;;;33.66;40.07;99956.25;5283112;27;35034;-86
2023/06/21 11:08:50;;;;;;;;;;;;;;;33.65;40.28;99955.41;5283777;27;33217;-86
2023/06/21 11:11:27;;;;;;;;;;;;;;;33.50;40.08;99954.81;5298354;27;32235;-86
2023/06/21 11:13:55;;;;;;;;;;;;;;;33.59;40.79;99950.78;5283407;27;34412;-86
2023/06/21 11:16:24;;;;;;;;;;;;;;;33.84;41.12;99959.16;5283286;27;35140;-86
2023/06/21 11:18:56;;;;;;;;;;;;;;;33.76;40.26;99952.03;5265667;27;34556;-86
2023/06/21 11:21:34;;;;;;;;;;;;;;;33.67;40.08;99953.31;5302142;27;32898;-86
2023/06/21 11:24:05;;;;;;;;;;;;;;;33.79;38.96;99945.25;5301112;27;34189;-86
2023/06/21 11:27:13;;;;;;;;;;;;;;;34.06;39.53;99946.06;5283232;27;33611;-86
2023/06/21 11:29:41;;;;;;;;;;;;;;;34.24;41.10;99943.47;5230991;27;33733;-86
2023/06/21 11:32:15;;;;;;;;;;;;;;;34.36;39.42;99947.19;5213458;27;33595;-86
2023/06/21 11:34:53;;;;;;;;;;;;;;;34.67;39.65;99942.00;5233997;27;33983;-86
2023/06/21 11:37:32;;;;;;;;;;;;;;;34.80;39.66;99942.75;5283960;27;34318;-86
2023/06/21 11:40:00;;;;;;;;;;;;;;;35.07;37.37;99937.09;5301099;27;35677;-85
2023/06/21 11:42:34;;;;;;;;;;;;;;;34.56;37.69;99938.03;5282954;27;32444;-86
2023/06/21 11:45:20;;;;;;;;;;;;;;;34.44;38.19;99928.81;5283380;27;34406;-85
2023/06/21 11:48:08;;;;;;;;;;;;;;;35.02;38.62;99928.69;5270145;27;805665;-86
2023/06/21 11:50:43;;;;;;;;;;;;;;;35.33;36.36;99917.66;5300042;27;33255;-85
2023/06/21 11:53:28;;;;;;;;;;;;;;;35.39;37.61;99918.66;5283475;27;33036;-86
2023/06/21 11:55:57;;;;;;;;;;;;;;;35.22;38.77;99912.03;5299915;27;34103;-86
2023/06/21 11:58:25;;;;;;;;;;;;;;;35.84;36.58;99915.66;5298648;27;33784;-86
2023/06/21 12:00:53;;;;;;;;;;;;;;;35.46;34.99;99913.09;5279861;27;34419;-85
2023/06/21 12:03:25;;;;;;;;;;;;;;;35.64;35.60;99915.88;5281054;27;32774;-86
2023/06/21 12:05:57;;;;;;;;;;;;;;;35.71;35.82;99911.16;5298428;27;34656;-86
2023/06/21 12:08:27;;;;;;;;;;;;;;;35.81;35.60;99908.72;5298571;27;33964;-86
2023/06/21 12:11:02;;;;;;;;;;;;;;;36.07;34.33;99907.56;5298263;27;35278;-86
2023/06/21 12:13:30;;;;;;;;;;;;;;;36.24;33.44;99909.69;5298570;27;33619;-85
2023/06/21 12:15:59;;;;;;;;;;;;;;;35.88;33.09;99898.47;5296370;27;33667;-86
2023/06/21 12:18:27;;;;;;;;;;;;;;;36.27;32.87;99893.56;5299058;27;33463;-85
2023/06/21 12:20:55;;;;;;;;;;;;;;;36.26;32.55;99891.03;5319599;27;33228;-86
2023/06/21 12:23:23;;;;;;;;;;;;;;;36.29;31.87;99880.44;5300137;27;34324;-85
2023/06/21 12:25:54;;;;;;;;;;;;;;;36.02;33.43;99895.59;5318960;27;33887;-86
2023/06/21 12:28:23;;;;;;;;;;;;;;;36.01;32.67;99897.50;5318798;27;35108;-85
2023/06/21 12:30:57;;;;;;;;;;;;;;;35.99;32.29;99898.78;5282569;27;33361;-85
2023/06/21 12:33:29;;;;;;;;;;;;;;;35.95;31.08;99900.34;5319244;27;33380;-86
2023/06/21 12:36:09;;;;;;;;;;;;;;;36.33;31.13;99895.41;5301471;27;32970;-82
2023/06/21 12:38:37;;;;;;;;;;;;;;;36.48;30.63;99905.16;5320065;27;33555;-84
2023/06/21 12:41:04;;;;;;;;;;;;;;;36.45;32.06;99905.62;5281903;27;33508;-83
2023/06/21 12:43:35;;;;;;;;;;;;;;;36.60;31.29;99906.03;5318948;27;33550;-84
2023/06/21 12:46:04;;;;;;;;;;;;;;;36.23;31.29;99899.78;5319359;27;32708;-83
2023/06/21 12:48:32;;;;;;;;;;;;;;;36.35;31.31;99904.22;5318384;27;33734;-83
2023/06/21 12:51:00;;;;;;;;;;;;;;;36.32;31.33;99899.22;5319047;27;33766;-83
2023/06/21 12:53:28;;;;;;;;;;;;;;;36.36;31.54;99894.91;5319732;27;33209;-83
2023/06/21 12:56:03;;;;;;;;;;;;;;;36.49;31.82;99895.84;5320729;27;34283;-83
2023/06/21 12:58:31;;;;;;;;;;;;;;;36.65;31.05;99892.41;5300489;27;33648;-83